createdAt,value
2018-03-11T00:01:56.187Z,24.83
2018-03-11T00:04:24.443Z,26.40
2018-03-11T00:06:53.488Z,25.50
2018-03-11T00:09:21.751Z,25.30
2018-03-11T00:11:50.020Z,24.97
2018-03-11T00:14:19.041Z,24.97
2018-03-11T00:16:47.312Z,26.70
2018-03-11T00:19:16.336Z,23.57
2018-03-11T00:21:44.611Z,23.97
2018-03-11T00:24:13.660Z,23.40
2018-03-11T00:26:41.924Z,25.10
2018-03-11T00:29:10.184Z,23.07
2018-03-11T00:31:39.224Z,23.10
2018-03-11T00:34:07.487Z,25.73
2018-03-11T00:36:36.532Z,24.77
2018-03-11T00:39:04.789Z,22.33
2018-03-11T00:41:33.823Z,22.50
2018-03-11T00:44:02.075Z,21.93
2018-03-11T00:46:31.121Z,23.53
2018-03-11T00:48:59.385Z,24.30
2018-03-11T00:51:27.667Z,22.37
2018-03-11T00:53:56.697Z,24.13
2018-03-11T00:56:24.969Z,23.87
2018-03-11T00:58:53.224Z,23.27
2018-03-11T01:01:21.501Z,24.37
2018-03-11T01:03:49.764Z,24.37
2018-03-11T01:06:18.036Z,25.73
2018-03-11T01:08:46.333Z,25.90
2018-03-11T01:11:14.598Z,26.27
2018-03-11T01:13:42.858Z,27.53
2018-03-11T01:16:11.123Z,27.57
2018-03-11T01:18:39.389Z,27.63
2018-03-11T01:21:07.665Z,29.47
2018-03-11T01:23:35.923Z,26.47
2018-03-11T01:26:04.961Z,26.77
2018-03-11T01:28:33.219Z,26.97
2018-03-11T01:31:01.484Z,28.10
2018-03-11T01:33:29.740Z,27.57
2018-03-11T01:35:58.013Z,25.20
2018-03-11T01:38:26.264Z,25.40
2018-03-11T01:40:55.298Z,24.47
2018-03-11T01:43:23.560Z,25.97
2018-03-11T01:45:53.492Z,23.10
2018-03-11T01:48:22.520Z,25.97
2018-03-11T01:50:50.787Z,24.90
2018-03-11T01:53:19.811Z,26.20
2018-03-11T01:55:48.088Z,25.50
2018-03-11T01:58:17.124Z,27.00
2018-03-11T02:00:45.384Z,26.90
2018-03-11T02:03:14.407Z,26.80
2018-03-11T02:05:42.685Z,27.63
2018-03-11T02:08:11.708Z,27.20
2018-03-11T02:10:39.984Z,29.47
2018-03-11T02:13:08.244Z,27.93
2018-03-11T02:15:36.522Z,30.30
2018-03-11T02:18:04.787Z,29.30
2018-03-11T02:20:33.048Z,27.80
2018-03-11T02:23:01.325Z,28.00
2018-03-11T02:25:29.587Z,26.20
2018-03-11T02:27:57.865Z,26.50
2018-03-11T02:30:26.137Z,26.43
2018-03-11T02:32:54.401Z,25.47
2018-03-11T02:35:22.655Z,25.10
2018-03-11T02:37:51.684Z,24.40
2018-03-11T02:40:19.940Z,26.00
2018-03-11T02:42:48.971Z,25.33
2018-03-11T02:45:17.228Z,24.30
2018-03-11T02:47:45.495Z,24.63
2018-03-11T02:50:13.752Z,24.40
2018-03-11T02:52:42.026Z,25.00
2018-03-11T02:55:10.284Z,25.40
2018-03-11T02:57:38.556Z,27.97
2018-03-11T03:00:06.816Z,24.30
2018-03-11T03:02:35.085Z,26.50
2018-03-11T03:05:03.341Z,25.60
2018-03-11T03:07:31.603Z,24.90
2018-03-11T03:09:59.868Z,27.50
2018-03-11T03:12:28.127Z,25.93
2018-03-11T03:14:56.383Z,28.47
2018-03-11T03:17:24.656Z,27.90
2018-03-11T03:19:52.914Z,29.00
2018-03-11T03:22:21.184Z,30.10
2018-03-11T03:24:49.454Z,30.00
2018-03-11T03:27:18.493Z,29.33
2018-03-11T03:29:46.768Z,31.77
2018-03-11T03:32:15.037Z,31.03
2018-03-11T03:34:44.068Z,30.23
2018-03-11T03:37:12.337Z,31.60
2018-03-11T03:39:41.357Z,33.30
2018-03-11T03:42:09.623Z,33.27
2018-03-11T03:44:38.647Z,33.53
2018-03-11T03:47:06.907Z,32.17
2018-03-11T03:49:35.164Z,33.00
2018-03-11T03:52:03.432Z,37.90
2018-03-11T03:54:31.702Z,38.77
2018-03-11T03:56:59.975Z,45.93
2018-03-11T03:59:28.997Z,35.73
2018-03-11T04:01:57.268Z,43.73
2018-03-11T04:04:26.293Z,53.87
2018-03-11T04:06:54.591Z,39.20
2018-03-11T04:09:22.848Z,45.47
2018-03-11T04:11:52.052Z,68.87
2018-03-11T04:14:21.971Z,45.77
2018-03-11T04:16:50.242Z,65.50
2018-03-11T04:19:18.499Z,57.93
2018-03-11T04:21:46.768Z,74.63
2018-03-11T04:24:15.027Z,66.23
2018-03-11T04:26:43.307Z,60.73
2018-03-11T04:29:11.563Z,65.57
2018-03-11T04:31:39.831Z,75.87
2018-03-11T04:34:08.096Z,90.30
2018-03-11T04:36:37.132Z,68.57
2018-03-11T04:39:05.421Z,40.87
2018-03-11T04:41:33.688Z,58.90
2018-03-11T04:44:02.718Z,62.80
2018-03-11T04:46:30.986Z,42.00
2018-03-11T04:49:00.022Z,81.63
2018-03-11T04:51:28.283Z,56.57
2018-03-11T04:53:56.557Z,69.33
2018-03-11T04:56:25.584Z,81.40
2018-03-11T04:58:53.864Z,71.60
2018-03-11T05:01:22.897Z,83.07
2018-03-11T05:03:51.168Z,66.57
2018-03-11T05:06:19.425Z,62.60
2018-03-11T05:08:47.696Z,83.47
2018-03-11T05:11:15.963Z,85.60
2018-03-11T05:13:44.240Z,79.33
2018-03-11T05:16:12.506Z,76.70
2018-03-11T05:18:41.548Z,64.40
2018-03-11T05:21:09.804Z,67.47
2018-03-11T05:23:38.076Z,68.93
2018-03-11T05:26:07.102Z,73.27
2018-03-11T05:28:35.371Z,49.60
2018-03-11T05:31:04.400Z,50.27
2018-03-11T05:33:32.667Z,45.80
2018-03-11T05:36:01.692Z,44.00
2018-03-11T05:38:29.965Z,30.20
2018-03-11T05:40:58.988Z,27.80
2018-03-11T05:43:27.255Z,28.70
2018-03-11T05:45:56.278Z,25.40
2018-03-11T05:48:24.551Z,24.57
2018-03-11T05:50:54.476Z,21.90
2018-03-11T05:53:23.555Z,21.57
2018-03-11T05:55:51.785Z,21.40
2018-03-11T05:58:20.057Z,22.60
2018-03-11T06:00:49.231Z,20.60
2018-03-11T06:03:17.500Z,20.20
2018-03-11T06:05:46.531Z,18.53
2018-03-11T06:08:14.808Z,19.17
2018-03-11T06:10:43.068Z,18.17
2018-03-11T06:13:11.332Z,15.60
2018-03-11T06:15:40.368Z,16.37
2018-03-11T06:18:08.640Z,17.20
2018-03-11T06:20:36.908Z,17.70
2018-03-11T06:23:05.944Z,16.97
2018-03-11T06:25:34.195Z,15.30
2018-03-11T06:28:02.468Z,16.20
2018-03-11T06:30:30.729Z,14.90
2018-03-11T06:32:59.011Z,17.00
2018-03-11T06:35:27.268Z,16.10
2018-03-11T06:37:56.300Z,16.57
2018-03-11T06:40:24.560Z,16.33
2018-03-11T06:42:53.592Z,15.97
2018-03-11T06:45:21.861Z,14.80
2018-03-11T06:47:50.129Z,14.60
2018-03-11T06:50:18.387Z,14.67
2018-03-11T06:52:46.651Z,13.20
2018-03-11T06:55:14.918Z,12.27
2018-03-11T06:57:43.188Z,13.53
2018-03-11T07:00:12.216Z,12.73
2018-03-11T07:02:40.483Z,11.90
2018-03-11T07:05:09.507Z,12.80
2018-03-11T07:07:37.775Z,12.70
2018-03-11T07:10:06.801Z,12.33
2018-03-11T07:12:35.077Z,12.40
2018-03-11T07:15:04.996Z,12.03
2018-03-11T07:17:34.041Z,12.10
2018-03-11T07:20:02.304Z,12.60
2018-03-11T07:22:31.333Z,12.20
2018-03-11T07:24:59.597Z,12.70
2018-03-11T07:27:28.626Z,12.70
2018-03-11T07:29:56.884Z,12.20
2018-03-11T07:32:25.932Z,12.27
2018-03-11T07:34:54.183Z,13.20
2018-03-11T07:37:23.217Z,11.13
2018-03-11T07:39:51.489Z,11.40
2018-03-11T07:42:19.753Z,10.40
2018-03-11T07:44:48.027Z,11.20
2018-03-11T07:47:16.276Z,10.23
2018-03-11T07:49:44.558Z,13.40
2018-03-11T07:52:12.807Z,11.50
2018-03-11T07:54:41.876Z,10.30
2018-03-11T07:57:10.100Z,9.23
2018-03-11T07:59:39.136Z,9.20
2018-03-11T08:02:07.395Z,8.80
2018-03-11T08:04:36.431Z,8.23
2018-03-11T08:07:05.461Z,8.00
2018-03-11T08:09:34.490Z,7.50
2018-03-11T08:12:02.757Z,8.20
2018-03-11T08:14:31.034Z,6.80
2018-03-11T08:16:59.296Z,7.00
2018-03-11T08:19:28.330Z,6.07
2018-03-11T08:21:56.593Z,5.67
2018-03-11T08:24:25.630Z,6.30
2018-03-11T08:26:57.407Z,5.07
2018-03-11T08:29:25.675Z,5.30
2018-03-11T08:31:53.939Z,4.80
2018-03-11T08:34:22.971Z,5.00
2018-03-11T08:36:51.237Z,4.40
2018-03-11T08:39:19.512Z,5.97
2018-03-11T08:41:47.771Z,4.40
2018-03-11T08:44:16.039Z,4.20
2018-03-11T08:46:44.308Z,5.17
2018-03-11T08:49:12.599Z,4.00
2018-03-11T08:51:41.613Z,3.70
2018-03-11T08:54:09.880Z,3.57
2018-03-11T08:56:38.908Z,3.13
2018-03-11T08:59:07.195Z,3.80
2018-03-11T09:01:36.205Z,4.20
2018-03-11T09:04:04.472Z,3.43
2018-03-11T09:06:33.505Z,4.03
2018-03-11T09:09:01.778Z,4.20
2018-03-11T09:11:30.049Z,4.40
2018-03-11T09:13:59.156Z,4.13
2018-03-11T09:16:28.176Z,4.10
2018-03-11T09:18:56.448Z,4.43
2018-03-11T09:21:25.471Z,4.20
2018-03-11T09:23:53.744Z,4.40
2018-03-11T09:26:22.765Z,4.60
2018-03-11T09:28:51.067Z,3.90
2018-03-11T09:31:19.332Z,4.73
2018-03-11T09:33:48.367Z,5.20
2018-03-11T09:36:16.640Z,5.33
2018-03-11T09:38:44.912Z,5.83
2018-03-11T09:41:13.933Z,4.93
2018-03-11T09:43:42.203Z,4.80
2018-03-11T09:46:11.228Z,4.73
2018-03-11T09:48:39.496Z,4.13
2018-03-11T09:51:08.529Z,4.77
2018-03-11T09:53:36.796Z,4.37
2018-03-11T09:56:05.815Z,4.33
2018-03-11T09:58:34.112Z,3.90
2018-03-11T10:01:03.120Z,4.20
2018-03-11T10:03:31.383Z,4.47
2018-03-11T10:06:00.433Z,4.20
2018-03-11T10:08:28.703Z,4.50
2018-03-11T10:10:56.972Z,3.73
2018-03-11T10:13:26.128Z,3.97
2018-03-11T10:15:55.100Z,4.20
2018-03-11T10:18:23.390Z,4.17
2018-03-11T10:20:51.657Z,4.20
2018-03-11T10:23:20.697Z,4.47
2018-03-11T10:25:48.960Z,3.90
2018-03-11T10:28:17.997Z,3.83
2018-03-11T10:30:46.266Z,3.90
2018-03-11T10:33:14.519Z,3.90
2018-03-11T10:35:42.793Z,3.93
2018-03-11T10:38:11.048Z,4.50
2018-03-11T10:40:39.317Z,4.47
2018-03-11T10:43:07.574Z,4.40
2018-03-11T10:45:35.838Z,4.60
2018-03-11T10:48:04.091Z,3.80
2018-03-11T10:50:32.361Z,4.43
2018-03-11T10:53:01.383Z,4.10
2018-03-11T10:55:29.656Z,3.90
2018-03-11T10:57:58.685Z,4.00
2018-03-11T11:00:27.860Z,3.50
2018-03-11T11:05:58.621Z,4.10
2018-03-11T11:08:26.932Z,3.60
2018-03-11T11:10:55.176Z,4.00
2018-03-11T11:13:23.443Z,3.40
2018-03-11T11:15:51.731Z,3.10
2018-03-11T11:18:19.979Z,3.40
2018-03-11T11:20:48.250Z,3.23
2018-03-11T11:23:16.508Z,2.67
2018-03-11T11:25:44.783Z,3.57
2018-03-11T11:28:13.053Z,3.43
2018-03-11T11:30:42.079Z,3.53
2018-03-11T11:33:10.348Z,3.90
2018-03-11T11:35:38.647Z,3.70
2018-03-11T11:38:06.915Z,4.17
2018-03-11T11:40:35.964Z,4.10
2018-03-11T11:43:07.471Z,4.00
2018-03-11T11:45:35.749Z,4.00
2018-03-11T11:48:04.019Z,4.20
2018-03-11T11:50:32.295Z,2.87
2018-03-11T11:53:00.563Z,5.03
2018-03-11T11:55:28.827Z,3.97
2018-03-11T11:57:57.860Z,4.30
2018-03-11T12:00:26.740Z,3.57
2018-03-11T12:02:55.765Z,4.10
2018-03-11T12:05:24.084Z,4.20
2018-03-11T12:07:53.076Z,4.90
2018-03-11T12:10:21.359Z,4.33
2018-03-11T12:12:49.616Z,5.60
2018-03-11T12:15:18.660Z,4.80
2018-03-11T12:17:46.925Z,5.20
2018-03-11T12:20:15.959Z,5.03
2018-03-11T12:22:44.220Z,5.10
2018-03-11T12:25:13.256Z,5.57
2018-03-11T12:27:41.516Z,6.00
2018-03-11T12:30:10.548Z,5.70
2018-03-11T12:32:38.837Z,5.80
2018-03-11T12:35:07.848Z,6.60
2018-03-11T12:37:36.113Z,5.63
2018-03-11T12:40:04.456Z,5.90
2018-03-11T12:42:32.715Z,5.87
2018-03-11T12:45:00.991Z,5.20
2018-03-11T12:47:29.265Z,7.33
2018-03-11T12:49:58.304Z,9.70
2018-03-11T12:52:26.573Z,9.10
2018-03-11T12:54:54.839Z,8.70
2018-03-11T12:57:23.877Z,9.23
2018-03-11T12:59:52.146Z,7.13
2018-03-11T13:02:21.171Z,9.07
2018-03-11T13:04:49.446Z,7.87
2018-03-11T13:07:17.716Z,8.20
2018-03-11T13:09:46.748Z,6.00
2018-03-11T13:12:15.004Z,6.40
2018-03-11T13:14:44.937Z,6.03
2018-03-11T13:17:13.965Z,6.80
2018-03-11T13:19:42.243Z,13.87
2018-03-11T13:22:11.263Z,6.93
2018-03-11T13:24:39.541Z,7.13
2018-03-11T13:27:07.812Z,5.10
2018-03-11T13:29:36.907Z,4.90
2018-03-11T13:32:22.906Z,5.33
2018-03-11T13:34:51.185Z,5.00
2018-03-11T13:37:19.482Z,5.57
2018-03-11T13:40:05.365Z,5.87
2018-03-11T13:42:33.630Z,5.40
2018-03-11T13:45:19.792Z,4.97
2018-03-11T13:47:48.055Z,4.90
2018-03-11T13:50:16.323Z,4.00
2018-03-11T13:53:02.336Z,4.37
2018-03-11T13:55:30.612Z,4.10
2018-03-11T14:01:11.272Z,3.80
2018-03-11T14:03:39.711Z,3.60
2018-03-11T14:06:07.999Z,3.60
2018-03-11T14:08:37.008Z,4.00
2018-03-11T14:11:05.276Z,4.03
2018-03-11T14:13:34.318Z,4.80
2018-03-11T14:16:02.608Z,4.60
2018-03-11T14:18:30.858Z,4.67
2018-03-11T14:20:59.902Z,4.30
2018-03-11T14:23:28.163Z,4.63
2018-03-11T14:25:56.436Z,4.80
2018-03-11T14:28:25.460Z,5.00
2018-03-11T14:30:54.443Z,4.40
2018-03-11T14:33:22.695Z,5.00
2018-03-11T14:35:51.061Z,5.50
2018-03-11T14:38:20.094Z,5.60
2018-03-11T14:40:48.375Z,5.50
2018-03-11T14:43:17.400Z,4.23
2018-03-11T14:45:45.677Z,5.50
2018-03-11T14:48:13.951Z,5.20
2018-03-11T14:50:42.240Z,5.50
2018-03-11T14:53:10.479Z,14.67
2018-03-11T14:55:39.310Z,5.70
2018-03-11T14:58:07.585Z,5.10
2018-03-11T15:00:35.872Z,6.37
2018-03-11T15:03:04.909Z,6.73
2018-03-11T15:05:33.183Z,6.97
2018-03-11T15:08:01.448Z,6.00
2018-03-11T15:10:30.487Z,5.50
2018-03-11T15:12:58.752Z,5.30
2018-03-11T15:15:27.780Z,5.77
2018-03-11T15:17:56.053Z,5.70
2018-03-11T15:20:25.079Z,5.90
2018-03-11T15:22:53.355Z,6.00
2018-03-11T15:25:21.615Z,5.43
2018-03-11T15:27:49.881Z,5.93
2018-03-11T15:30:18.161Z,5.70
2018-03-11T15:32:46.453Z,5.50
2018-03-11T15:35:14.713Z,6.50
2018-03-11T15:37:43.009Z,5.40
2018-03-11T15:40:11.297Z,6.40
2018-03-11T15:42:39.516Z,6.20
2018-03-11T15:45:07.778Z,6.27
2018-03-11T15:47:36.045Z,5.23
2018-03-11T15:50:04.311Z,6.40
2018-03-11T15:52:33.341Z,7.07
2018-03-11T15:55:01.626Z,6.10
2018-03-11T15:57:29.951Z,6.30
2018-03-11T15:59:58.937Z,6.27
2018-03-11T16:02:27.258Z,6.00
2018-03-11T16:04:56.226Z,6.20
2018-03-11T16:07:24.500Z,6.00
2018-03-11T16:09:53.543Z,6.30
2018-03-11T16:12:21.812Z,6.70
2018-03-11T16:14:50.068Z,6.33
2018-03-11T16:17:18.341Z,7.03
2018-03-11T16:19:46.611Z,7.90
2018-03-11T16:22:14.884Z,7.87
2018-03-11T16:24:43.155Z,6.63
2018-03-11T16:27:11.433Z,8.13
2018-03-11T16:29:40.464Z,8.20
2018-03-11T16:32:08.739Z,7.70
2018-03-11T16:34:36.993Z,7.30
2018-03-11T16:37:05.260Z,7.87
2018-03-11T16:39:33.529Z,7.17
2018-03-11T16:42:01.810Z,10.00
2018-03-11T16:44:30.072Z,7.73
2018-03-11T16:46:58.352Z,7.30
2018-03-11T16:49:27.384Z,6.90
2018-03-11T16:51:55.653Z,7.90
2018-03-11T16:54:24.672Z,8.03
2018-03-11T16:56:53.000Z,7.70
2018-03-11T16:59:21.212Z,7.20
2018-03-11T17:01:49.484Z,7.57
2018-03-11T17:04:17.748Z,7.00
2018-03-11T17:06:46.020Z,6.73
2018-03-11T17:09:14.283Z,6.70
2018-03-11T17:11:43.315Z,7.20
2018-03-11T17:14:11.591Z,7.30
2018-03-11T17:16:39.860Z,7.17
2018-03-11T17:19:08.894Z,7.50
2018-03-11T17:21:37.155Z,7.40
2018-03-11T17:24:05.404Z,7.77
2018-03-11T17:26:34.568Z,7.27
2018-03-11T17:29:03.588Z,6.10
2018-03-11T17:31:31.851Z,6.50
2018-03-11T17:34:00.888Z,4.50
2018-03-11T17:36:29.152Z,4.90
2018-03-11T17:38:58.182Z,5.00
2018-03-11T17:41:29.595Z,5.40
2018-03-11T17:43:57.861Z,7.37
2018-03-11T17:46:26.131Z,11.23
2018-03-11T17:49:12.944Z,7.03
2018-03-11T17:51:41.212Z,10.03
2018-03-11T17:54:10.240Z,8.70
2018-03-11T17:56:38.534Z,5.70
2018-03-11T17:59:09.456Z,4.40
2018-03-11T18:01:38.485Z,4.70
2018-03-11T18:04:06.740Z,4.17
2018-03-11T18:06:35.767Z,3.83
2018-03-11T18:09:04.053Z,4.47
2018-03-11T18:11:33.087Z,4.47
2018-03-11T18:14:01.353Z,6.13
2018-03-11T18:16:30.396Z,5.43
2018-03-11T18:18:58.658Z,4.60
2018-03-11T18:21:26.923Z,5.23
2018-03-11T18:23:55.943Z,6.43
2018-03-11T18:26:24.199Z,5.07
2018-03-11T18:28:52.540Z,4.53
2018-03-11T18:31:20.792Z,4.30
2018-03-11T18:33:49.820Z,4.50
2018-03-11T18:36:18.100Z,6.40
2018-03-11T18:38:46.444Z,6.50
2018-03-11T18:41:14.709Z,5.83
2018-03-11T18:43:42.976Z,6.47
2018-03-11T18:46:11.246Z,7.13
2018-03-11T18:48:40.276Z,9.50
2018-03-11T18:51:08.540Z,9.67
2018-03-11T18:53:37.571Z,10.20
2018-03-11T18:56:05.845Z,9.27
2018-03-11T18:58:34.886Z,8.90
2018-03-11T19:01:03.133Z,8.90
2018-03-11T19:03:32.176Z,8.70
2018-03-11T19:06:00.428Z,10.30
2018-03-11T19:08:29.477Z,9.53
2018-03-11T19:10:57.745Z,9.80
2018-03-11T19:13:26.007Z,9.30
2018-03-11T19:15:55.220Z,9.00
2018-03-11T19:18:24.244Z,8.57
2018-03-11T19:20:52.496Z,8.90
2018-03-11T19:23:20.769Z,10.13
2018-03-11T19:25:49.036Z,10.10
2018-03-11T19:28:17.331Z,9.43
2018-03-11T19:30:45.603Z,8.50
2018-03-11T19:33:13.867Z,9.10
2018-03-11T19:35:42.127Z,8.43
2018-03-11T19:38:10.388Z,8.87
2018-03-11T19:40:38.652Z,7.60
2018-03-11T19:43:06.924Z,7.73
2018-03-11T19:45:35.193Z,8.37
2018-03-11T19:48:04.223Z,8.17
2018-03-11T19:50:32.489Z,6.90
2018-03-11T19:53:01.516Z,6.40
2018-03-11T19:55:29.775Z,6.13
2018-03-11T19:57:58.040Z,5.40
2018-03-11T20:00:26.296Z,6.40
2018-03-11T20:02:54.576Z,5.77
2018-03-11T20:05:23.004Z,7.40
2018-03-11T20:07:51.284Z,6.63
2018-03-11T20:10:19.540Z,6.40
2018-03-11T20:12:47.832Z,7.47
2018-03-11T20:15:16.097Z,6.80
2018-03-11T20:17:45.127Z,5.97
2018-03-11T20:20:13.380Z,6.43
2018-03-11T20:22:41.650Z,5.47
2018-03-11T20:25:09.909Z,5.83
2018-03-11T20:27:38.166Z,5.07
2018-03-11T20:30:07.191Z,7.00
2018-03-11T20:32:35.459Z,5.80
2018-03-11T20:35:04.492Z,6.40
2018-03-11T20:37:32.768Z,5.70
2018-03-11T20:40:01.021Z,5.53
2018-03-11T20:42:29.294Z,5.37
2018-03-11T20:44:57.544Z,5.30
2018-03-11T20:47:25.825Z,5.27
2018-03-11T20:49:54.097Z,4.70
2018-03-11T20:52:23.124Z,6.33
2018-03-11T20:54:51.439Z,7.90
2018-03-11T20:57:19.649Z,6.60
2018-03-11T20:59:47.922Z,6.83
2018-03-11T21:02:16.184Z,6.67
2018-03-11T21:04:44.456Z,8.37
2018-03-11T21:07:12.764Z,7.30
2018-03-11T21:09:41.757Z,5.50
2018-03-11T21:12:10.019Z,5.63
2018-03-11T21:14:39.054Z,5.83
2018-03-11T21:17:07.315Z,4.97
2018-03-11T21:19:36.342Z,4.53
2018-03-11T21:22:04.595Z,5.23
2018-03-11T21:24:32.864Z,5.87
2018-03-11T21:27:01.120Z,5.87
2018-03-11T21:29:30.153Z,5.93
2018-03-11T21:31:58.413Z,5.70
2018-03-11T21:34:27.377Z,5.70
2018-03-11T21:36:55.630Z,5.40
2018-03-11T21:39:23.900Z,5.33
2018-03-11T21:41:52.160Z,6.50
2018-03-11T21:44:20.430Z,5.47
2018-03-11T21:46:48.693Z,5.90
2018-03-11T21:49:16.974Z,4.90
2018-03-11T21:51:45.228Z,5.50
2018-03-11T21:54:13.492Z,5.83
2018-03-11T21:56:42.516Z,6.97
2018-03-11T21:59:10.780Z,6.37
2018-03-11T22:01:39.800Z,4.90
2018-03-11T22:04:08.836Z,4.40
2018-03-11T22:06:37.095Z,4.10
2018-03-11T22:09:05.430Z,4.43
2018-03-11T22:11:33.700Z,7.67
2018-03-11T22:14:02.736Z,6.37
2018-03-11T22:16:31.003Z,7.80
2018-03-11T22:18:59.282Z,7.70
2018-03-11T22:21:27.541Z,5.60
2018-03-11T22:23:56.593Z,9.43
2018-03-11T22:26:24.843Z,9.20
2018-03-11T22:28:53.119Z,6.20
2018-03-11T22:31:21.370Z,6.40
2018-03-11T22:33:49.644Z,6.77
2018-03-11T22:36:17.899Z,7.00
2018-03-11T22:38:46.165Z,7.60
2018-03-11T22:41:15.207Z,6.83
2018-03-11T22:43:43.477Z,7.60
2018-03-11T22:46:12.501Z,6.83
2018-03-11T22:48:40.768Z,7.60
2018-03-11T22:51:09.791Z,7.27
2018-03-11T22:53:38.069Z,6.67
2018-03-11T22:56:07.092Z,8.27
2018-03-11T22:58:35.374Z,7.80
2018-03-11T23:01:03.640Z,5.70
2018-03-11T23:03:32.664Z,5.80
2018-03-11T23:06:00.944Z,4.70
2018-03-11T23:08:29.200Z,3.83
2018-03-11T23:10:57.463Z,4.40
2018-03-11T23:13:25.732Z,4.40
2018-03-11T23:15:53.999Z,5.00
2018-03-11T23:18:22.259Z,4.77
2018-03-11T23:20:50.538Z,4.90
2018-03-11T23:23:18.799Z,4.10
2018-03-11T23:25:47.064Z,4.80
2018-03-11T23:28:15.327Z,6.50
2018-03-11T23:30:44.373Z,9.43
2018-03-11T23:33:12.641Z,9.57
2018-03-11T23:35:40.921Z,9.40
2018-03-11T23:38:09.943Z,6.27
2018-03-11T23:40:38.220Z,5.10
2018-03-11T23:43:06.479Z,5.27
2018-03-11T23:45:34.749Z,7.07
2018-03-11T23:48:03.012Z,6.33
2018-03-11T23:50:31.620Z,5.40
2018-03-11T23:52:59.878Z,5.77
2018-03-11T23:55:28.148Z,5.47
2018-03-11T23:57:57.172Z,4.20
